Time;durP1;ratioP1;P1;durP2;ratioP2;P2;SDS_P1;SDS_P2;PMS_P1;PMS_P2;Temp;Humidity;BMP_temperature;BMP_pressure;BME280_temperature;BME280_humidity;BME280_pressure;Samples;Min_cycle;Max_cycle;Signal;HPM_P1;HPM_P2
2023/08/29 00:01:20;;;;;;;1.13;0.82;;;;;;;;;;5088191;28;41484;-68
2023/08/29 00:03:49;;;;;;;0.50;0.50;;;;;;;;;;5087776;28;42107;-68
2023/08/29 00:06:18;;;;;;;0.45;0.45;;;;;;;;;;5088279;28;40979;-68
2023/08/29 00:08:46;;;;;;;1.98;0.57;;;;;;;;;;5087458;28;41147;-68
2023/08/29 00:11:17;;;;;;;3.08;0.80;;;;;;;;;;5087822;28;43034;-69
2023/08/29 00:13:47;;;;;;;0.88;0.50;;;;;;;;;;5085436;28;39813;-69
2023/08/29 00:16:16;;;;;;;0.75;0.60;;;;;;;;;;5087310;28;41576;-69
2023/08/29 00:18:44;;;;;;;0.60;0.50;;;;;;;;;;5087786;28;40096;-69
2023/08/29 00:21:13;;;;;;;0.80;0.68;;;;;;;;;;5087855;28;41631;-69
2023/08/29 00:23:42;;;;;;;0.63;0.30;;;;;;;;;;5087384;28;41935;-69
2023/08/29 00:26:10;;;;;;;1.42;0.70;;;;;;;;;;5088982;27;40164;-69
2023/08/29 00:28:40;;;;;;;0.77;0.43;;;;;;;;;;5087398;28;41903;-69
2023/08/29 00:31:11;;;;;;;0.90;0.57;;;;;;;;;;5113938;27;40431;-69
2023/08/29 00:33:39;;;;;;;2.00;0.60;;;;;;;;;;5086086;28;38964;-69
2023/08/29 00:36:07;;;;;;;1.20;1.10;;;;;;;;;;5087040;28;40422;-69
2023/08/29 00:38:35;;;;;;;0.65;0.60;;;;;;;;;;5086879;28;40829;-69
2023/08/29 00:41:05;;;;;;;0.88;0.82;;;;;;;;;;5120249;27;40040;-69
2023/08/29 00:43:33;;;;;;;0.43;0.32;;;;;;;;;;5087582;28;43016;-69
2023/08/29 00:46:01;;;;;;;0.80;0.80;;;;;;;;;;5085005;28;39374;-69
2023/08/29 00:48:30;;;;;;;1.05;0.70;;;;;;;;;;5085992;28;40111;-69
2023/08/29 00:50:58;;;;;;;0.88;0.65;;;;;;;;;;5087868;28;42243;-69
2023/08/29 00:53:26;;;;;;;1.40;0.80;;;;;;;;;;5085573;28;39892;-69
2023/08/29 00:55:54;;;;;;;0.63;0.40;;;;;;;;;;5086865;28;40272;-70
2023/08/29 00:58:23;;;;;;;1.02;0.70;;;;;;;;;;5085671;28;41666;-69
2023/08/29 01:00:51;;;;;;;0.80;0.60;;;;;;;;;;5087287;28;42033;-69
2023/08/29 01:03:19;;;;;;;0.93;0.65;;;;;;;;;;5086889;28;42051;-69
2023/08/29 01:05:47;;;;;;;1.05;0.45;;;;;;;;;;5087504;27;40955;-69
2023/08/29 01:08:15;;;;;;;0.90;0.80;;;;;;;;;;5086523;28;42294;-69
2023/08/29 01:10:45;;;;;;;2.25;0.70;;;;;;;;;;5085947;28;41286;-69
2023/08/29 01:13:16;;;;;;;1.92;0.80;;;;;;;;;;5084151;28;40386;-69
2023/08/29 01:15:46;;;;;;;0.80;0.60;;;;;;;;;;5087629;28;42251;-69
2023/08/29 01:18:15;;;;;;;2.28;0.70;;;;;;;;;;5085414;28;41756;-69
2023/08/29 01:20:43;;;;;;;0.88;0.70;;;;;;;;;;5086371;28;40342;-69
2023/08/29 01:23:12;;;;;;;0.50;0.20;;;;;;;;;;5085546;28;41308;-69
2023/08/29 01:25:44;;;;;;;1.27;0.85;;;;;;;;;;5085805;28;39381;-69
2023/08/29 01:28:14;;;;;;;0.85;0.70;;;;;;;;;;5085776;28;42385;-69
2023/08/29 01:30:42;;;;;;;1.23;0.90;;;;;;;;;;5086422;28;42154;-69
2023/08/29 01:33:09;;;;;;;0.90;0.60;;;;;;;;;;5085221;28;38788;-69
2023/08/29 01:35:42;;;;;;;1.33;0.77;;;;;;;;;;5084174;28;40246;-69
2023/08/29 01:38:10;;;;;;;0.80;0.52;;;;;;;;;;5084274;28;42111;-69
2023/08/29 01:40:39;;;;;;;0.70;0.63;;;;;;;;;;5086966;28;40999;-69
2023/08/29 01:43:08;;;;;;;1.30;0.98;;;;;;;;;;5086302;28;41152;-69
2023/08/29 01:45:37;;;;;;;1.33;0.70;;;;;;;;;;5086814;28;40588;-69
2023/08/29 01:48:06;;;;;;;1.10;0.88;;;;;;;;;;5085773;28;42606;-69
2023/08/29 01:50:35;;;;;;;1.08;0.50;;;;;;;;;;5084027;28;42211;-69
2023/08/29 01:53:03;;;;;;;1.73;0.52;;;;;;;;;;5087010;28;40284;-69
2023/08/29 01:55:32;;;;;;;1.55;0.80;;;;;;;;;;5085011;28;41358;-69
2023/08/29 01:58:00;;;;;;;0.88;0.77;;;;;;;;;;5086391;28;41455;-69
2023/08/29 02:00:28;;;;;;;0.40;0.30;;;;;;;;;;5088100;28;40583;-69
2023/08/29 02:02:57;;;;;;;0.50;0.40;;;;;;;;;;5089360;28;42264;-69
2023/08/29 02:05:25;;;;;;;0.60;0.60;;;;;;;;;;5090225;28;32944;-69
2023/08/29 02:07:53;;;;;;;1.02;0.93;;;;;;;;;;5088513;28;41421;-69
2023/08/29 02:10:21;;;;;;;1.02;0.93;;;;;;;;;;5089650;28;42120;-69
2023/08/29 02:12:49;;;;;;;0.60;0.55;;;;;;;;;;5087774;28;40041;-69
2023/08/29 02:15:17;;;;;;;0.95;0.60;;;;;;;;;;5090188;28;41689;-69
2023/08/29 02:17:46;;;;;;;0.80;0.70;;;;;;;;;;5087135;28;41845;-70
2023/08/29 02:20:15;;;;;;;0.85;0.52;;;;;;;;;;5088322;28;39328;-69
2023/08/29 02:22:43;;;;;;;0.60;0.38;;;;;;;;;;5087711;28;39689;-69
2023/08/29 02:25:12;;;;;;;0.90;0.43;;;;;;;;;;5089817;28;43018;-69
2023/08/29 02:27:40;;;;;;;0.45;0.45;;;;;;;;;;5087910;28;41294;-69
2023/08/29 02:30:10;;;;;;;1.10;0.73;;;;;;;;;;5087674;28;42110;-69
2023/08/29 02:32:38;;;;;;;0.40;0.40;;;;;;;;;;5087954;28;39615;-69
2023/08/29 02:35:07;;;;;;;0.60;0.60;;;;;;;;;;5089958;28;41756;-69
2023/08/29 02:37:36;;;;;;;0.35;0.30;;;;;;;;;;5088393;28;43118;-69
2023/08/29 02:40:07;;;;;;;0.95;0.50;;;;;;;;;;5089986;28;39923;-69
2023/08/29 02:42:35;;;;;;;1.83;0.82;;;;;;;;;;5087267;28;40301;-70
2023/08/29 02:45:04;;;;;;;1.05;0.70;;;;;;;;;;5083144;28;40548;-69
2023/08/29 02:47:32;;;;;;;0.70;0.57;;;;;;;;;;5089869;28;40504;-69
2023/08/29 02:50:00;;;;;;;0.63;0.40;;;;;;;;;;5089347;28;42821;-69
2023/08/29 02:52:28;;;;;;;0.52;0.50;;;;;;;;;;5088357;28;40391;-69
2023/08/29 02:54:58;;;;;;;1.63;0.28;;;;;;;;;;5088439;28;41261;-69
2023/08/29 02:57:26;;;;;;;0.60;0.60;;;;;;;;;;5080420;28;41642;-69
2023/08/29 02:59:55;;;;;;;0.77;0.70;;;;;;;;;;5087559;28;39815;-69
2023/08/29 03:02:23;;;;;;;1.15;0.77;;;;;;;;;;5089218;28;41743;-69
2023/08/29 03:04:51;;;;;;;0.63;0.60;;;;;;;;;;5089660;28;42370;-69
2023/08/29 03:07:19;;;;;;;1.02;0.90;;;;;;;;;;5086212;28;40154;-69
2023/08/29 03:09:47;;;;;;;1.83;0.70;;;;;;;;;;5087743;28;40164;-70
2023/08/29 03:12:16;;;;;;;1.48;0.70;;;;;;;;;;5086635;28;39981;-69
2023/08/29 03:14:44;;;;;;;0.30;0.25;;;;;;;;;;5086434;28;40498;-69
2023/08/29 03:17:12;;;;;;;0.82;0.70;;;;;;;;;;5089115;28;42758;-69
2023/08/29 03:19:41;;;;;;;0.52;0.50;;;;;;;;;;5086237;28;38918;-69
2023/08/29 03:22:09;;;;;;;4.63;0.60;;;;;;;;;;5089144;28;41523;-69
2023/08/29 03:24:37;;;;;;;0.88;0.40;;;;;;;;;;5088377;28;41577;-69
2023/08/29 03:27:05;;;;;;;0.32;0.32;;;;;;;;;;5088202;28;40727;-69
2023/08/29 03:29:34;;;;;;;0.88;0.85;;;;;;;;;;5088059;28;42136;-69
2023/08/29 03:32:02;;;;;;;0.60;0.55;;;;;;;;;;5107657;27;41826;-69
2023/08/29 03:34:30;;;;;;;0.60;0.30;;;;;;;;;;5087797;28;41604;-69
2023/08/29 03:36:58;;;;;;;3.38;0.60;;;;;;;;;;5089034;28;42009;-69
2023/08/29 03:39:26;;;;;;;0.73;0.70;;;;;;;;;;5087078;28;39975;-69
2023/08/29 03:41:54;;;;;;;0.30;0.30;;;;;;;;;;5088213;28;41776;-69
2023/08/29 03:44:23;;;;;;;1.63;0.68;;;;;;;;;;5086862;28;41269;-69
2023/08/29 03:46:53;;;;;;;0.47;0.47;;;;;;;;;;5118298;27;37141;-69
2023/08/29 03:49:21;;;;;;;1.85;0.55;;;;;;;;;;5087860;28;42601;-69
2023/08/29 03:51:49;;;;;;;0.93;0.82;;;;;;;;;;5088293;28;40817;-69
2023/08/29 03:54:17;;;;;;;0.52;0.50;;;;;;;;;;5086815;28;38982;-69
2023/08/29 03:56:45;;;;;;;0.80;0.70;;;;;;;;;;5086266;28;40671;-69
2023/08/29 03:59:13;;;;;;;0.52;0.52;;;;;;;;;;5074489;28;40993;-69
2023/08/29 04:01:41;;;;;;;1.38;0.60;;;;;;;;;;5086690;28;40931;-69
2023/08/29 04:04:10;;;;;;;0.50;0.50;;;;;;;;;;5086829;28;40757;-69
2023/08/29 04:06:39;;;;;;;0.45;0.45;;;;;;;;;;5088143;28;40612;-69
2023/08/29 04:09:10;;;;;;;0.73;0.73;;;;;;;;;;5087737;28;41630;-69
2023/08/29 04:11:38;;;;;;;0.68;0.55;;;;;;;;;;5085106;28;42132;-69
2023/08/29 04:14:06;;;;;;;0.85;0.80;;;;;;;;;;5086946;28;39278;-69
2023/08/29 04:16:34;;;;;;;0.52;0.52;;;;;;;;;;5087141;28;43100;-69
2023/08/29 04:19:02;;;;;;;0.32;0.32;;;;;;;;;;5085672;28;39969;-69
2023/08/29 04:21:31;;;;;;;0.80;0.80;;;;;;;;;;5083461;28;41696;-69
2023/08/29 04:23:59;;;;;;;0.50;0.50;;;;;;;;;;5088192;28;42173;-69
2023/08/29 04:26:27;;;;;;;0.60;0.45;;;;;;;;;;5086433;28;39705;-69
2023/08/29 04:28:55;;;;;;;0.90;0.77;;;;;;;;;;5086966;28;40193;-69
2023/08/29 04:31:23;;;;;;;0.82;0.82;;;;;;;;;;5085325;28;41190;-69
2023/08/29 04:33:51;;;;;;;1.05;0.60;;;;;;;;;;5087795;28;40308;-69
2023/08/29 04:36:19;;;;;;;1.50;1.00;;;;;;;;;;5087979;28;41723;-68
2023/08/29 04:38:49;;;;;;;0.75;0.50;;;;;;;;;;5085485;28;38914;-69
2023/08/29 04:41:17;;;;;;;1.15;1.05;;;;;;;;;;5087193;28;42369;-69
2023/08/29 04:43:45;;;;;;;1.02;0.90;;;;;;;;;;5085290;28;41866;-68
2023/08/29 04:46:13;;;;;;;1.52;0.90;;;;;;;;;;5085851;28;39802;-68
2023/08/29 04:48:42;;;;;;;0.73;0.73;;;;;;;;;;5084689;28;40342;-68
2023/08/29 04:51:09;;;;;;;1.23;1.13;;;;;;;;;;5085549;28;40546;-69
2023/08/29 04:53:37;;;;;;;1.00;0.90;;;;;;;;;;5085483;28;38956;-68
2023/08/29 04:56:07;;;;;;;2.45;0.63;;;;;;;;;;5085768;28;40058;-69
2023/08/29 04:58:37;;;;;;;0.88;0.77;;;;;;;;;;5079967;28;40564;-69
2023/08/29 05:01:05;;;;;;;0.55;0.50;;;;;;;;;;5079188;28;39685;-69
2023/08/29 05:03:33;;;;;;;0.50;0.50;;;;;;;;;;5107825;27;41023;-69
2023/08/29 05:06:02;;;;;;;0.50;0.50;;;;;;;;;;5077044;28;40894;-69
2023/08/29 05:08:34;;;;;;;0.80;0.70;;;;;;;;;;5081322;28;40030;-69
2023/08/29 05:11:03;;;;;;;0.60;0.60;;;;;;;;;;5076865;28;40748;-69
2023/08/29 05:13:32;;;;;;;0.65;0.65;;;;;;;;;;5085482;28;39781;-69
2023/08/29 05:16:00;;;;;;;1.70;1.50;;;;;;;;;;5086013;28;41201;-69
2023/08/29 05:18:28;;;;;;;0.47;0.47;;;;;;;;;;5084522;28;41950;-69
2023/08/29 05:20:58;;;;;;;1.35;1.10;;;;;;;;;;5084658;28;38261;-69
2023/08/29 05:23:26;;;;;;;0.60;0.60;;;;;;;;;;5085131;28;40495;-69
2023/08/29 05:25:54;;;;;;;1.27;1.17;;;;;;;;;;5083885;28;40401;-69
2023/08/29 05:28:22;;;;;;;2.25;0.80;;;;;;;;;;5084856;28;42226;-69
2023/08/29 05:30:52;;;;;;;1.33;1.10;;;;;;;;;;5087372;28;42564;-69
2023/08/29 05:33:19;;;;;;;0.75;0.75;;;;;;;;;;5090371;28;40260;-69
2023/08/29 05:35:47;;;;;;;5.57;1.20;;;;;;;;;;5090291;28;41571;-69
2023/08/29 05:38:15;;;;;;;5.50;1.15;;;;;;;;;;5090711;28;43026;-69
2023/08/29 05:40:43;;;;;;;6.13;1.27;;;;;;;;;;5089678;28;41423;-69
2023/08/29 05:43:11;;;;;;;7.00;0.93;;;;;;;;;;5091554;28;41625;-69
2023/08/29 05:45:41;;;;;;;11.45;1.40;;;;;;;;;;5086406;28;41419;-68
2023/08/29 05:48:11;;;;;;;4.93;1.20;;;;;;;;;;5084335;28;41057;-69
2023/08/29 05:50:39;;;;;;;4.88;1.10;;;;;;;;;;5089856;28;41566;-68
2023/08/29 05:53:07;;;;;;;4.22;1.17;;;;;;;;;;5090735;28;41468;-69
2023/08/29 05:55:35;;;;;;;6.22;1.30;;;;;;;;;;5088516;28;42299;-68
2023/08/29 05:58:03;;;;;;;13.52;1.10;;;;;;;;;;5090626;28;41636;-68
2023/08/29 06:00:32;;;;;;;6.20;1.17;;;;;;;;;;5089499;28;40631;-69
2023/08/29 06:03:01;;;;;;;20.77;2.13;;;;;;;;;;5089490;28;42695;-69
2023/08/29 06:05:31;;;;;;;9.38;1.13;;;;;;;;;;5091389;27;41713;-69
2023/08/29 06:08:00;;;;;;;14.68;1.52;;;;;;;;;;5074939;28;41649;-69
2023/08/29 06:10:46;;;;;;;7.97;2.22;;;;;;;;;;5089399;28;41634;-69
2023/08/29 06:13:14;;;;;;;8.98;2.50;;;;;;;;;;5090589;28;40300;-68
2023/08/29 06:15:42;;;;;;;11.63;2.00;;;;;;;;;;5090426;27;42352;-68
2023/08/29 06:18:10;;;;;;;16.88;2.38;;;;;;;;;;5090524;28;41695;-68
2023/08/29 06:20:39;;;;;;;9.50;2.00;;;;;;;;;;5090500;28;41317;-68
2023/08/29 06:23:07;;;;;;;7.22;1.77;;;;;;;;;;5086595;28;42774;-68
2023/08/29 06:25:35;;;;;;;6.85;1.75;;;;;;;;;;5089763;28;43144;-68
2023/08/29 06:28:03;;;;;;;3.97;1.60;;;;;;;;;;5089694;28;42179;-68
2023/08/29 06:30:32;;;;;;;6.38;1.90;;;;;;;;;;5089082;28;41582;-68
2023/08/29 06:33:00;;;;;;;6.60;1.45;;;;;;;;;;5089711;28;40012;-68
2023/08/29 06:35:28;;;;;;;8.20;1.90;;;;;;;;;;5087353;28;42559;-69
2023/08/29 06:37:57;;;;;;;9.77;1.60;;;;;;;;;;5079981;28;42644;-69
2023/08/29 06:40:25;;;;;;;8.20;1.58;;;;;;;;;;5089431;28;41357;-69
2023/08/29 06:42:53;;;;;;;7.78;1.60;;;;;;;;;;5089243;28;41661;-69
2023/08/29 06:45:21;;;;;;;2.95;1.60;;;;;;;;;;5088900;28;41947;-69
2023/08/29 06:47:51;;;;;;;10.15;2.08;;;;;;;;;;5074946;28;40647;-68
2023/08/29 06:50:19;;;;;;;9.32;1.58;;;;;;;;;;5086701;28;42227;-68
2023/08/29 06:52:47;;;;;;;4.05;1.80;;;;;;;;;;5088499;28;40898;-68
2023/08/29 06:55:16;;;;;;;3.95;1.40;;;;;;;;;;5088848;28;41289;-69
2023/08/29 06:57:44;;;;;;;5.13;1.80;;;;;;;;;;5087717;28;41912;-69
2023/08/29 07:00:13;;;;;;;5.15;1.85;;;;;;;;;;5088238;28;40894;-68
2023/08/29 07:02:41;;;;;;;9.50;1.45;;;;;;;;;;5088069;28;43180;-69
2023/08/29 07:05:09;;;;;;;2.50;1.58;;;;;;;;;;5086972;28;41596;-68
2023/08/29 07:07:38;;;;;;;4.30;1.55;;;;;;;;;;5087607;28;40252;-69
2023/08/29 07:10:07;;;;;;;7.68;2.08;;;;;;;;;;5088133;28;41758;-69
2023/08/29 07:12:36;;;;;;;10.88;1.65;;;;;;;;;;5086586;28;40300;-69
2023/08/29 07:15:04;;;;;;;7.80;1.60;;;;;;;;;;5092414;28;42292;-69
2023/08/29 07:17:32;;;;;;;7.82;1.80;;;;;;;;;;5094973;28;41688;-69
2023/08/29 07:20:00;;;;;;;4.65;2.10;;;;;;;;;;5088620;28;40601;-69
2023/08/29 07:22:28;;;;;;;3.90;1.77;;;;;;;;;;5086776;28;42185;-69
2023/08/29 07:24:56;;;;;;;8.40;2.85;;;;;;;;;;5088924;28;42953;-69
2023/08/29 07:27:24;;;;;;;4.35;2.40;;;;;;;;;;5087797;28;40483;-69
2023/08/29 07:29:54;;;;;;;20.48;3.22;;;;;;;;;;5088885;28;41494;-69
2023/08/29 07:32:22;;;;;;;5.20;2.40;;;;;;;;;;5088349;28;41749;-69
2023/08/29 07:34:51;;;;;;;7.03;3.00;;;;;;;;;;5088423;28;41214;-69
2023/08/29 07:37:19;;;;;;;6.88;2.83;;;;;;;;;;5088287;28;42593;-69
2023/08/29 07:39:47;;;;;;;8.70;2.40;;;;;;;;;;5081611;28;41284;-69
2023/08/29 07:42:16;;;;;;;4.78;2.47;;;;;;;;;;5087956;28;41692;-69
2023/08/29 07:44:44;;;;;;;3.55;2.30;;;;;;;;;;5088708;28;42088;-69
2023/08/29 07:47:14;;;;;;;3.55;2.42;;;;;;;;;;5089003;28;40975;-69
2023/08/29 07:49:43;;;;;;;9.50;2.28;;;;;;;;;;5088362;28;41647;-69
2023/08/29 07:52:11;;;;;;;11.00;2.70;;;;;;;;;;5089107;28;43071;-70
2023/08/29 07:54:39;;;;;;;7.43;2.58;;;;;;;;;;5087948;28;40386;-69
2023/08/29 07:57:07;;;;;;;212.70;10.52;;;;;;;;;;5088235;28;41799;-74
2023/08/29 07:59:35;;;;;;;23.67;3.33;;;;;;;;;;5087682;28;41034;-70
2023/08/29 08:02:04;;;;;;;24.20;2.67;;;;;;;;;;5086570;28;41588;-70
2023/08/29 08:04:34;;;;;;;29.80;3.03;;;;;;;;;;5087339;28;41750;-69
2023/08/29 08:07:02;;;;;;;5.15;2.38;;;;;;;;;;5087944;28;41234;-68
2023/08/29 08:09:31;;;;;;;15.10;2.95;;;;;;;;;;5086839;28;41601;-69
2023/08/29 08:12:00;;;;;;;17.42;3.08;;;;;;;;;;5087860;28;41307;-69
2023/08/29 08:14:28;;;;;;;12.60;2.60;;;;;;;;;;5087291;28;40403;-68
2023/08/29 08:16:56;;;;;;;16.58;2.38;;;;;;;;;;5087711;28;41341;-68
2023/08/29 08:19:24;;;;;;;10.32;2.13;;;;;;;;;;5087412;28;40129;-68
2023/08/29 08:21:53;;;;;;;8.30;2.30;;;;;;;;;;5085236;28;43148;-68
2023/08/29 08:24:22;;;;;;;9.38;1.90;;;;;;;;;;5088674;28;20656;-68
2023/08/29 08:26:50;;;;;;;9.10;2.50;;;;;;;;;;5087754;28;40258;-68
2023/08/29 08:29:18;;;;;;;6.22;2.28;;;;;;;;;;5086709;28;42613;-68
2023/08/29 08:31:46;;;;;;;6.25;2.13;;;;;;;;;;5085759;28;42056;-68
2023/08/29 08:34:14;;;;;;;9.07;1.90;;;;;;;;;;5087609;28;40985;-68
2023/08/29 08:36:42;;;;;;;7.43;2.38;;;;;;;;;;5087189;28;40921;-68
2023/08/29 08:39:12;;;;;;;7.63;1.90;;;;;;;;;;5086675;28;41123;-68
2023/08/29 08:41:40;;;;;;;10.25;2.00;;;;;;;;;;5079966;28;40287;-70
2023/08/29 08:44:09;;;;;;;4.78;1.70;;;;;;;;;;5080516;28;42388;-70
2023/08/29 08:46:37;;;;;;;3.90;1.60;;;;;;;;;;5086648;28;40254;-69
2023/08/29 08:49:06;;;;;;;25.80;3.13;;;;;;;;;;5087000;28;41600;-69
2023/08/29 08:51:34;;;;;;;7.95;2.10;;;;;;;;;;5085366;28;41780;-68
2023/08/29 08:54:02;;;;;;;7.18;2.10;;;;;;;;;;5081383;28;41480;-69
2023/08/29 08:56:31;;;;;;;5.82;1.75;;;;;;;;;;5078558;28;41544;-69
2023/08/29 08:58:59;;;;;;;5.78;1.50;;;;;;;;;;5084740;28;42447;-69
2023/08/29 09:01:28;;;;;;;7.20;1.50;;;;;;;;;;5086347;28;42578;-68
2023/08/29 09:03:56;;;;;;;4.90;1.50;;;;;;;;;;5086347;28;43209;-68
2023/08/29 09:06:24;;;;;;;3.45;1.40;;;;;;;;;;5087314;28;40601;-68
2023/08/29 09:08:52;;;;;;;4.25;1.13;;;;;;;;;;5090651;28;41554;-68
2023/08/29 09:11:20;;;;;;;3.30;1.55;;;;;;;;;;5088803;28;42645;-68
2023/08/29 09:13:49;;;;;;;4.47;1.48;;;;;;;;;;5089626;28;41360;-68
2023/08/29 09:16:17;;;;;;;4.80;1.40;;;;;;;;;;5089850;28;42039;-68
2023/08/29 09:18:45;;;;;;;2.70;1.20;;;;;;;;;;5088841;28;41850;-68
2023/08/29 09:21:16;;;;;;;4.25;1.17;;;;;;;;;;5087740;28;42036;-68
2023/08/29 09:23:45;;;;;;;2.33;1.00;;;;;;;;;;5087558;28;42852;-68
2023/08/29 09:26:13;;;;;;;2.15;1.33;;;;;;;;;;5090311;28;40299;-68
2023/08/29 09:28:41;;;;;;;4.10;1.23;;;;;;;;;;5090173;28;42123;-68
2023/08/29 09:31:10;;;;;;;3.10;1.42;;;;;;;;;;5091005;28;42340;-68
2023/08/29 09:33:39;;;;;;;2.20;1.30;;;;;;;;;;5089325;28;40388;-68
2023/08/29 09:36:07;;;;;;;2.40;0.98;;;;;;;;;;5090818;28;43009;-68
2023/08/29 09:38:35;;;;;;;2.67;1.02;;;;;;;;;;5089804;28;41658;-68
2023/08/29 09:41:03;;;;;;;3.75;0.90;;;;;;;;;;5089445;28;40539;-68
2023/08/29 09:43:32;;;;;;;2.88;0.95;;;;;;;;;;5090047;28;41602;-68
2023/08/29 09:46:00;;;;;;;3.83;1.00;;;;;;;;;;5090416;28;42601;-68
2023/08/29 09:48:29;;;;;;;2.63;0.80;;;;;;;;;;5089196;28;42292;-68
2023/08/29 09:50:58;;;;;;;2.25;0.70;;;;;;;;;;5078924;28;42183;-68
2023/08/29 09:53:26;;;;;;;4.20;0.70;;;;;;;;;;5089493;28;40812;-68
2023/08/29 09:55:56;;;;;;;5.78;1.15;;;;;;;;;;5088260;28;41951;-68
2023/08/29 09:58:24;;;;;;;3.17;0.63;;;;;;;;;;5087702;28;42164;-68
2023/08/29 10:00:52;;;;;;;0.77;0.60;;;;;;;;;;5090084;28;40085;-68
2023/08/29 10:03:20;;;;;;;2.97;0.95;;;;;;;;;;5090218;28;42248;-68
2023/08/29 10:05:49;;;;;;;2.38;0.88;;;;;;;;;;5090638;28;43693;-68
2023/08/29 10:08:19;;;;;;;1.80;1.00;;;;;;;;;;5088778;28;41573;-68
2023/08/29 10:10:47;;;;;;;3.60;1.02;;;;;;;;;;5085226;28;42500;-68
2023/08/29 10:13:15;;;;;;;1.80;0.70;;;;;;;;;;5090883;28;40360;-68
2023/08/29 10:15:43;;;;;;;1.88;0.80;;;;;;;;;;5087550;28;40290;-68
2023/08/29 10:18:11;;;;;;;1.85;0.88;;;;;;;;;;5088987;28;42063;-68
2023/08/29 10:20:43;;;;;;;2.60;0.80;;;;;;;;;;5089406;28;40143;-68
2023/08/29 10:23:13;;;;;;;2.55;1.00;;;;;;;;;;5089083;28;42639;-69
2023/08/29 10:25:41;;;;;;;1.95;0.95;;;;;;;;;;5089986;28;41865;-68
2023/08/29 10:28:10;;;;;;;2.00;0.80;;;;;;;;;;5086018;28;39572;-68
2023/08/29 10:30:39;;;;;;;3.60;1.73;;;;;;;;;;5088964;28;43202;-68
2023/08/29 10:33:07;;;;;;;2.70;0.85;;;;;;;;;;5087755;28;38841;-68
2023/08/29 10:35:35;;;;;;;2.38;0.80;;;;;;;;;;5089120;28;41217;-68
2023/08/29 10:38:07;;;;;;;3.33;0.70;;;;;;;;;;5089463;28;42115;-68
2023/08/29 10:40:41;;;;;;;6.00;1.27;;;;;;;;;;5076294;28;40210;-68
2023/08/29 10:43:16;;;;;;;3.53;0.73;;;;;;;;;;5089215;28;41981;-68
2023/08/29 10:45:46;;;;;;;4.07;0.85;;;;;;;;;;5073793;28;42692;-68
2023/08/29 10:48:18;;;;;;;1.83;0.68;;;;;;;;;;5088614;28;38732;-67
2023/08/29 10:50:48;;;;;;;3.15;1.70;;;;;;;;;;5088261;28;41413;-68
2023/08/29 10:53:17;;;;;;;1.60;0.80;;;;;;;;;;5089679;28;41561;-68
2023/08/29 10:55:51;;;;;;;1.02;0.45;;;;;;;;;;5089692;28;41658;-69
2023/08/29 10:58:30;;;;;;;6.32;0.98;;;;;;;;;;5086434;28;40360;-68
2023/08/29 11:00:58;;;;;;;2.65;0.65;;;;;;;;;;5084706;28;41215;-69
2023/08/29 11:03:42;;;;;;;0.90;0.52;;;;;;;;;;5088851;28;41023;-68
2023/08/29 11:06:10;;;;;;;5.70;0.75;;;;;;;;;;5077163;28;42834;-68
2023/08/29 11:08:38;;;;;;;1.95;0.88;;;;;;;;;;5087039;28;38116;-68
2023/08/29 11:11:17;;;;;;;5.68;0.93;;;;;;;;;;5089176;28;40202;-69
2023/08/29 11:13:58;;;;;;;7.05;0.82;;;;;;;;;;5088910;28;41191;-69
2023/08/29 11:16:26;;;;;;;3.42;0.68;;;;;;;;;;5076893;28;42605;-68
2023/08/29 11:19:15;;;;;;;3.80;0.55;;;;;;;;;;5086841;28;41634;-68
2023/08/29 11:21:43;;;;;;;1.83;0.80;;;;;;;;;;5083136;28;39570;-68
2023/08/29 11:24:11;;;;;;;1.63;0.57;;;;;;;;;;5080621;28;41385;-69
2023/08/29 11:26:45;;;;;;;0.98;0.50;;;;;;;;;;5085239;28;43259;-69
2023/08/29 11:29:13;;;;;;;2.55;0.40;;;;;;;;;;5088558;28;40340;-68
2023/08/29 11:31:42;;;;;;;3.30;0.60;;;;;;;;;;5088001;28;41759;-68
2023/08/29 11:34:13;;;;;;;1.95;0.50;;;;;;;;;;5080563;28;40649;-68
2023/08/29 11:36:44;;;;;;;3.67;0.70;;;;;;;;;;5088971;28;41696;-68
2023/08/29 11:39:13;;;;;;;2.65;0.60;;;;;;;;;;5088091;28;41573;-69
2023/08/29 11:41:42;;;;;;;2.35;0.73;;;;;;;;;;5088384;28;41575;-68
2023/08/29 11:44:33;;;;;;;3.67;0.70;;;;;;;;;;5085078;28;41693;-68
2023/08/29 11:47:22;;;;;;;3.22;0.65;;;;;;;;;;5075569;28;42479;-68
2023/08/29 11:49:50;;;;;;;1.85;0.65;;;;;;;;;;5087656;28;40166;-71
2023/08/29 11:52:18;;;;;;;0.75;0.45;;;;;;;;;;5088569;28;41753;-68
2023/08/29 11:54:46;;;;;;;4.80;0.70;;;;;;;;;;5087741;28;43293;-68
2023/08/29 11:57:14;;;;;;;5.82;0.85;;;;;;;;;;5087904;28;40857;-68
2023/08/29 11:59:44;;;;;;;5.60;0.57;;;;;;;;;;5085153;28;42001;-69
2023/08/29 12:02:12;;;;;;;1.70;0.57;;;;;;;;;;5085329;28;40645;-69
2023/08/29 12:04:43;;;;;;;2.92;0.50;;;;;;;;;;5083444;28;41214;-68
2023/08/29 12:07:12;;;;;;;3.58;0.73;;;;;;;;;;5086161;28;43690;-68
2023/08/29 12:09:42;;;;;;;1.50;0.70;;;;;;;;;;5086259;28;40025;-68
2023/08/29 12:12:10;;;;;;;1.27;0.45;;;;;;;;;;5087171;28;42714;-68
2023/08/29 12:14:52;;;;;;;1.67;0.63;;;;;;;;;;5086841;28;41553;-68
2023/08/29 12:17:20;;;;;;;1.65;0.73;;;;;;;;;;5088161;28;41014;-68
2023/08/29 12:19:48;;;;;;;1.08;0.60;;;;;;;;;;5088599;28;41683;-68
2023/08/29 12:22:19;;;;;;;5.55;0.50;;;;;;;;;;5087627;28;41347;-68
2023/08/29 12:24:53;;;;;;;2.17;0.55;;;;;;;;;;5086772;28;41597;-68
2023/08/29 12:27:21;;;;;;;2.67;0.75;;;;;;;;;;5087380;28;41861;-68
2023/08/29 12:29:49;;;;;;;1.20;0.57;;;;;;;;;;5086850;28;39638;-68
2023/08/29 12:32:19;;;;;;;1.58;0.63;;;;;;;;;;5086347;28;40043;-69
2023/08/29 12:34:48;;;;;;;2.78;0.60;;;;;;;;;;5083954;28;42403;-68
2023/08/29 12:37:16;;;;;;;0.85;0.73;;;;;;;;;;5088014;28;40274;-68
2023/08/29 12:39:45;;;;;;;1.30;0.50;;;;;;;;;;5087183;28;41316;-68
2023/08/29 12:42:13;;;;;;;1.42;0.68;;;;;;;;;;5086870;28;33247;-69
2023/08/29 12:44:42;;;;;;;0.82;0.60;;;;;;;;;;5087830;28;41350;-68
2023/08/29 12:47:10;;;;;;;1.10;0.60;;;;;;;;;;5088146;28;43134;-68
2023/08/29 12:49:39;;;;;;;0.82;0.50;;;;;;;;;;5086209;28;39868;-68
2023/08/29 12:52:07;;;;;;;1.67;0.70;;;;;;;;;;5087265;28;41672;-68
2023/08/29 12:54:36;;;;;;;1.13;0.50;;;;;;;;;;5087115;28;43165;-68
2023/08/29 12:57:04;;;;;;;0.75;0.57;;;;;;;;;;5087202;28;41376;-68
2023/08/29 12:59:32;;;;;;;1.25;0.60;;;;;;;;;;5086846;28;42028;-68
2023/08/29 13:02:00;;;;;;;1.48;0.68;;;;;;;;;;5088046;28;43215;-69
2023/08/29 13:04:28;;;;;;;2.13;0.80;;;;;;;;;;5085981;28;41261;-68
2023/08/29 13:06:59;;;;;;;0.85;0.63;;;;;;;;;;5087558;28;42098;-68
2023/08/29 13:09:27;;;;;;;0.88;0.70;;;;;;;;;;5079994;28;39989;-69
2023/08/29 13:12:06;;;;;;;0.80;0.60;;;;;;;;;;5086805;28;42223;-69
2023/08/29 13:14:34;;;;;;;1.13;0.50;;;;;;;;;;5073531;28;43303;-69
2023/08/29 13:17:06;;;;;;;3.17;0.73;;;;;;;;;;5087364;28;41573;-68
2023/08/29 13:19:35;;;;;;;0.95;0.70;;;;;;;;;;5086828;28;41266;-69
2023/08/29 13:22:05;;;;;;;0.98;0.50;;;;;;;;;;5087034;28;42149;-68
2023/08/29 13:24:33;;;;;;;2.22;0.68;;;;;;;;;;5085353;27;40608;-68
2023/08/29 13:27:01;;;;;;;2.03;0.70;;;;;;;;;;5084846;28;41666;-69
2023/08/29 13:29:30;;;;;;;1.63;0.80;;;;;;;;;;5085914;28;40688;-69
2023/08/29 13:31:58;;;;;;;1.85;0.75;;;;;;;;;;5086212;28;42300;-69
2023/08/29 13:34:26;;;;;;;1.95;0.73;;;;;;;;;;5086769;28;42014;-68
2023/08/29 13:36:54;;;;;;;1.67;0.73;;;;;;;;;;5086525;28;40690;-69
2023/08/29 13:39:24;;;;;;;1.35;0.80;;;;;;;;;;5086094;28;41887;-68
2023/08/29 13:41:52;;;;;;;1.15;0.55;;;;;;;;;;5086757;28;43149;-68
2023/08/29 13:44:20;;;;;;;1.90;0.50;;;;;;;;;;5076344;28;40411;-68
2023/08/29 13:46:48;;;;;;;2.38;0.60;;;;;;;;;;5085809;28;41670;-68
2023/08/29 13:49:16;;;;;;;0.82;0.35;;;;;;;;;;5086961;28;40519;-68
2023/08/29 13:51:44;;;;;;;1.13;0.63;;;;;;;;;;5081174;28;41338;-68
2023/08/29 13:54:12;;;;;;;5.05;0.77;;;;;;;;;;5087342;28;43054;-70
2023/08/29 13:56:43;;;;;;;6.43;1.17;;;;;;;;;;5085599;28;41291;-70
2023/08/29 13:59:11;;;;;;;2.53;1.30;;;;;;;;;;5089220;28;41312;-68
2023/08/29 14:01:39;;;;;;;5.47;1.20;;;;;;;;;;5081811;28;42129;-69
2023/08/29 14:04:07;;;;;;;6.10;1.45;;;;;;;;;;5090554;28;40183;-69
2023/08/29 14:06:35;;;;;;;3.28;1.23;;;;;;;;;;5089497;28;42514;-68
2023/08/29 14:09:03;;;;;;;4.30;1.05;;;;;;;;;;5081236;28;42404;-70
2023/08/29 14:11:31;;;;;;;3.03;1.10;;;;;;;;;;5088953;28;42650;-69
2023/08/29 14:14:01;;;;;;;3.10;1.20;;;;;;;;;;5089067;28;40769;-68
2023/08/29 14:16:29;;;;;;;1.98;1.10;;;;;;;;;;5085253;28;39439;-69
2023/08/29 14:18:57;;;;;;;2.15;1.10;;;;;;;;;;5088884;28;41888;-69
2023/08/29 14:21:25;;;;;;;3.22;1.33;;;;;;;;;;5087864;28;43304;-69
2023/08/29 14:23:53;;;;;;;2.65;1.38;;;;;;;;;;5091287;28;39820;-70
2023/08/29 14:26:21;;;;;;;5.20;1.40;;;;;;;;;;5083136;28;42554;-70
2023/08/29 14:28:48;;;;;;;6.35;1.25;;;;;;;;;;5087589;28;41750;-70
2023/08/29 14:31:23;;;;;;;1.98;1.10;;;;;;;;;;5088507;28;41391;-68
2023/08/29 14:33:51;;;;;;;3.47;1.80;;;;;;;;;;5084014;28;43068;-68
2023/08/29 14:36:19;;;;;;;2.80;1.60;;;;;;;;;;5081872;28;39989;-69
2023/08/29 14:38:47;;;;;;;2.03;1.40;;;;;;;;;;5083194;28;43839;-68
2023/08/29 14:41:15;;;;;;;7.50;1.40;;;;;;;;;;5089610;28;43563;-69
2023/08/29 14:43:43;;;;;;;1.40;1.20;;;;;;;;;;5077682;28;40497;-69
2023/08/29 14:46:11;;;;;;;5.80;1.20;;;;;;;;;;5078996;28;42360;-69
2023/08/29 14:48:41;;;;;;;2.13;1.40;;;;;;;;;;5079988;28;41837;-69
2023/08/29 14:51:09;;;;;;;3.60;1.25;;;;;;;;;;5089530;28;40162;-69
2023/08/29 14:53:38;;;;;;;4.47;1.20;;;;;;;;;;5087216;28;41991;-69